sensor_id;sensor_type;location;lat;lon;timestamp;P1;durP1;ratioP1;P2;durP2;ratioP2
51525;SDS011;37611;51.794;21.590;2023-06-10T00:00:37;6.80;;;4.90;;
51525;SDS011;37611;51.794;21.590;2023-06-10T00:04:59;6.30;;;5.70;;
51525;SDS011;37611;51.794;21.590;2023-06-10T00:09:04;7.20;;;5.20;;
51525;SDS011;37611;51.794;21.590;2023-06-10T00:13:12;6.10;;;5.40;;
51525;SDS011;37611;51.794;21.590;2023-06-10T00:17:16;6.60;;;5.20;;
51525;SDS011;37611;51.794;21.590;2023-06-10T00:21:18;7.20;;;5.60;;
51525;SDS011;37611;51.794;21.590;2023-06-10T00:25:20;6.80;;;5.40;;
51525;SDS011;37611;51.794;21.590;2023-06-10T00:29:23;6.70;;;5.10;;
51525;SDS011;37611;51.794;21.590;2023-06-10T00:33:28;7.50;;;5.10;;
51525;SDS011;37611;51.794;21.590;2023-06-10T00:37:31;6.60;;;5.40;;
51525;SDS011;37611;51.794;21.590;2023-06-10T00:41:37;5.30;;;4.90;;
51525;SDS011;37611;51.794;21.590;2023-06-10T00:45:39;6.10;;;5.50;;
51525;SDS011;37611;51.794;21.590;2023-06-10T00:49:42;6.00;;;5.20;;
51525;SDS011;37611;51.794;21.590;2023-06-10T00:53:45;8.40;;;5.20;;
51525;SDS011;37611;51.794;21.590;2023-06-10T00:57:49;6.10;;;4.90;;
51525;SDS011;37611;51.794;21.590;2023-06-10T01:01:58;6.30;;;5.00;;
51525;SDS011;37611;51.794;21.590;2023-06-10T01:06:14;8.20;;;5.50;;
51525;SDS011;37611;51.794;21.590;2023-06-10T01:10:28;5.90;;;4.90;;
51525;SDS011;37611;51.794;21.590;2023-06-10T01:14:35;9.10;;;5.50;;
51525;SDS011;37611;51.794;21.590;2023-06-10T01:18:46;6.20;;;5.60;;
51525;SDS011;37611;51.794;21.590;2023-06-10T01:22:53;8.70;;;6.50;;
51525;SDS011;37611;51.794;21.590;2023-06-10T01:27:00;6.90;;;5.80;;
51525;SDS011;37611;51.794;21.590;2023-06-10T01:31:15;7.70;;;5.90;;
51525;SDS011;37611;51.794;21.590;2023-06-10T01:35:38;6.00;;;5.20;;
51525;SDS011;37611;51.794;21.590;2023-06-10T01:39:41;7.60;;;5.80;;
51525;SDS011;37611;51.794;21.590;2023-06-10T01:43:47;8.50;;;5.30;;
51525;SDS011;37611;51.794;21.590;2023-06-10T01:47:51;7.50;;;5.50;;
51525;SDS011;37611;51.794;21.590;2023-06-10T01:51:55;7.00;;;5.80;;
51525;SDS011;37611;51.794;21.590;2023-06-10T01:55:58;7.10;;;5.70;;
51525;SDS011;37611;51.794;21.590;2023-06-10T02:00:00;7.10;;;5.50;;
51525;SDS011;37611;51.794;21.590;2023-06-10T02:04:02;6.10;;;5.30;;
51525;SDS011;37611;51.794;21.590;2023-06-10T02:08:07;8.50;;;5.00;;
51525;SDS011;37611;51.794;21.590;2023-06-10T02:12:09;5.60;;;5.10;;
51525;SDS011;37611;51.794;21.590;2023-06-10T02:20:42;6.20;;;5.60;;
51525;SDS011;37611;51.794;21.590;2023-06-10T02:24:44;7.00;;;5.60;;
51525;SDS011;37611;51.794;21.590;2023-06-10T02:28:49;6.50;;;5.70;;
51525;SDS011;37611;51.794;21.590;2023-06-10T02:32:52;6.80;;;5.70;;
51525;SDS011;37611;51.794;21.590;2023-06-10T02:36:57;6.30;;;5.50;;
51525;SDS011;37611;51.794;21.590;2023-06-10T02:41:00;6.60;;;5.60;;
51525;SDS011;37611;51.794;21.590;2023-06-10T02:45:07;7.40;;;6.00;;
51525;SDS011;37611;51.794;21.590;2023-06-10T02:49:09;8.50;;;5.50;;
51525;SDS011;37611;51.794;21.590;2023-06-10T02:53:13;7.70;;;5.70;;
51525;SDS011;37611;51.794;21.590;2023-06-10T02:57:17;7.40;;;5.60;;
51525;SDS011;37611;51.794;21.590;2023-06-10T03:01:22;7.00;;;5.30;;
51525;SDS011;37611;51.794;21.590;2023-06-10T03:05:30;6.60;;;5.60;;
51525;SDS011;37611;51.794;21.590;2023-06-10T03:09:35;8.80;;;6.00;;
51525;SDS011;37611;51.794;21.590;2023-06-10T03:13:43;7.60;;;6.10;;
51525;SDS011;37611;51.794;21.590;2023-06-10T03:17:59;7.10;;;5.50;;
51525;SDS011;37611;51.794;21.590;2023-06-10T03:22:18;7.40;;;6.10;;
51525;SDS011;37611;51.794;21.590;2023-06-10T03:26:26;7.90;;;6.10;;
51525;SDS011;37611;51.794;21.590;2023-06-10T03:30:29;7.10;;;5.50;;
51525;SDS011;37611;51.794;21.590;2023-06-10T03:34:32;6.80;;;5.70;;
51525;SDS011;37611;51.794;21.590;2023-06-10T03:38:35;8.80;;;5.40;;
51525;SDS011;37611;51.794;21.590;2023-06-10T03:42:38;9.00;;;5.80;;
51525;SDS011;37611;51.794;21.590;2023-06-10T03:46:45;8.90;;;6.50;;
51525;SDS011;37611;51.794;21.590;2023-06-10T03:51:06;8.10;;;6.70;;
51525;SDS011;37611;51.794;21.590;2023-06-10T03:55:09;8.10;;;6.00;;
51525;SDS011;37611;51.794;21.590;2023-06-10T03:59:16;7.30;;;5.60;;
51525;SDS011;37611;51.794;21.590;2023-06-10T04:03:18;7.60;;;5.50;;
51525;SDS011;37611;51.794;21.590;2023-06-10T04:07:24;7.80;;;5.90;;
51525;SDS011;37611;51.794;21.590;2023-06-10T04:11:30;8.10;;;5.90;;
51525;SDS011;37611;51.794;21.590;2023-06-10T04:15:43;7.40;;;6.10;;
51525;SDS011;37611;51.794;21.590;2023-06-10T04:19:48;8.80;;;6.00;;
51525;SDS011;37611;51.794;21.590;2023-06-10T04:23:53;6.90;;;5.70;;
51525;SDS011;37611;51.794;21.590;2023-06-10T04:28:18;8.30;;;5.80;;
51525;SDS011;37611;51.794;21.590;2023-06-10T04:32:20;9.70;;;6.30;;
51525;SDS011;37611;51.794;21.590;2023-06-10T04:36:23;8.20;;;6.10;;
51525;SDS011;37611;51.794;21.590;2023-06-10T04:40:28;8.30;;;6.70;;
51525;SDS011;37611;51.794;21.590;2023-06-10T04:48:51;8.90;;;6.90;;
51525;SDS011;37611;51.794;21.590;2023-06-10T04:52:56;8.90;;;6.90;;
51525;SDS011;37611;51.794;21.590;2023-06-10T04:57:00;9.70;;;6.10;;
51525;SDS011;37611;51.794;21.590;2023-06-10T05:01:15;7.30;;;6.20;;
51525;SDS011;37611;51.794;21.590;2023-06-10T05:05:19;10.10;;;6.10;;
51525;SDS011;37611;51.794;21.590;2023-06-10T05:09:21;8.10;;;6.50;;
51525;SDS011;37611;51.794;21.590;2023-06-10T05:13:26;7.30;;;6.00;;
51525;SDS011;37611;51.794;21.590;2023-06-10T05:17:34;7.60;;;6.60;;
51525;SDS011;37611;51.794;21.590;2023-06-10T05:21:38;6.90;;;6.20;;
51525;SDS011;37611;51.794;21.590;2023-06-10T05:25:51;9.60;;;6.20;;
51525;SDS011;37611;51.794;21.590;2023-06-10T05:29:58;12.10;;;6.60;;
51525;SDS011;37611;51.794;21.590;2023-06-10T05:34:04;8.60;;;6.30;;
51525;SDS011;37611;51.794;21.590;2023-06-10T05:38:19;9.30;;;6.50;;
51525;SDS011;37611;51.794;21.590;2023-06-10T05:42:21;9.80;;;6.70;;
51525;SDS011;37611;51.794;21.590;2023-06-10T05:46:23;10.20;;;6.60;;
51525;SDS011;37611;51.794;21.590;2023-06-10T05:50:26;8.70;;;6.60;;
51525;SDS011;37611;51.794;21.590;2023-06-10T05:54:28;8.80;;;7.20;;
51525;SDS011;37611;51.794;21.590;2023-06-10T05:58:31;10.60;;;6.40;;
51525;SDS011;37611;51.794;21.590;2023-06-10T06:02:54;11.50;;;8.70;;
51525;SDS011;37611;51.794;21.590;2023-06-10T06:06:58;10.40;;;7.50;;
51525;SDS011;37611;51.794;21.590;2023-06-10T06:11:01;11.00;;;7.30;;
51525;SDS011;37611;51.794;21.590;2023-06-10T06:15:03;9.50;;;6.90;;
51525;SDS011;37611;51.794;21.590;2023-06-10T06:19:08;9.00;;;6.40;;
51525;SDS011;37611;51.794;21.590;2023-06-10T06:23:12;9.90;;;6.20;;
51525;SDS011;37611;51.794;21.590;2023-06-10T06:27:17;11.40;;;7.20;;
51525;SDS011;37611;51.794;21.590;2023-06-10T06:32:19;12.40;;;6.90;;
51525;SDS011;37611;51.794;21.590;2023-06-10T06:36:22;10.00;;;6.70;;
51525;SDS011;37611;51.794;21.590;2023-06-10T06:40:23;6.40;;;5.70;;
51525;SDS011;37611;51.794;21.590;2023-06-10T06:44:25;7.80;;;6.20;;
51525;SDS011;37611;51.794;21.590;2023-06-10T06:48:27;9.80;;;6.50;;
51525;SDS011;37611;51.794;21.590;2023-06-10T06:52:29;6.40;;;5.80;;
51525;SDS011;37611;51.794;21.590;2023-06-10T06:56:31;6.90;;;6.10;;
51525;SDS011;37611;51.794;21.590;2023-06-10T07:00:33;10.70;;;5.80;;
51525;SDS011;37611;51.794;21.590;2023-06-10T07:04:34;8.00;;;6.40;;
51525;SDS011;37611;51.794;21.590;2023-06-10T07:08:36;8.50;;;5.40;;
51525;SDS011;37611;51.794;21.590;2023-06-10T07:12:38;8.20;;;6.30;;
51525;SDS011;37611;51.794;21.590;2023-06-10T07:16:39;7.80;;;6.10;;
51525;SDS011;37611;51.794;21.590;2023-06-10T07:20:41;6.90;;;5.90;;
51525;SDS011;37611;51.794;21.590;2023-06-10T07:24:43;7.60;;;5.90;;
51525;SDS011;37611;51.794;21.590;2023-06-10T07:28:44;7.20;;;5.50;;
51525;SDS011;37611;51.794;21.590;2023-06-10T07:32:46;6.60;;;5.60;;
51525;SDS011;37611;51.794;21.590;2023-06-10T07:36:48;7.10;;;5.70;;
51525;SDS011;37611;51.794;21.590;2023-06-10T07:40:50;9.90;;;5.90;;
51525;SDS011;37611;51.794;21.590;2023-06-10T07:44:51;7.60;;;6.10;;
51525;SDS011;37611;51.794;21.590;2023-06-10T07:48:53;6.20;;;5.60;;
51525;SDS011;37611;51.794;21.590;2023-06-10T07:52:55;7.30;;;6.00;;
51525;SDS011;37611;51.794;21.590;2023-06-10T07:56:57;8.70;;;5.90;;
51525;SDS011;37611;51.794;21.590;2023-06-10T08:00:59;7.30;;;5.20;;
51525;SDS011;37611;51.794;21.590;2023-06-10T08:05:00;8.60;;;5.70;;
51525;SDS011;37611;51.794;21.590;2023-06-10T08:09:03;8.20;;;5.50;;
51525;SDS011;37611;51.794;21.590;2023-06-10T08:13:04;6.60;;;6.10;;
51525;SDS011;37611;51.794;21.590;2023-06-10T08:17:06;6.70;;;5.90;;
51525;SDS011;37611;51.794;21.590;2023-06-10T08:21:08;6.70;;;5.60;;
51525;SDS011;37611;51.794;21.590;2023-06-10T08:25:10;8.10;;;6.40;;
51525;SDS011;37611;51.794;21.590;2023-06-10T08:29:12;10.20;;;6.00;;
51525;SDS011;37611;51.794;21.590;2023-06-10T08:33:14;7.80;;;6.20;;
51525;SDS011;37611;51.794;21.590;2023-06-10T08:37:16;6.60;;;5.90;;
51525;SDS011;37611;51.794;21.590;2023-06-10T08:41:18;8.50;;;6.90;;
51525;SDS011;37611;51.794;21.590;2023-06-10T08:45:21;8.10;;;6.00;;
51525;SDS011;37611;51.794;21.590;2023-06-10T08:49:25;9.60;;;5.40;;
51525;SDS011;37611;51.794;21.590;2023-06-10T08:53:28;7.00;;;5.80;;
51525;SDS011;37611;51.794;21.590;2023-06-10T08:57:33;7.10;;;5.50;;
51525;SDS011;37611;51.794;21.590;2023-06-10T09:01:35;7.20;;;5.40;;
51525;SDS011;37611;51.794;21.590;2023-06-10T09:05:37;8.30;;;5.60;;
51525;SDS011;37611;51.794;21.590;2023-06-10T09:09:39;7.80;;;6.10;;
51525;SDS011;37611;51.794;21.590;2023-06-10T09:13:43;8.40;;;5.90;;
51525;SDS011;37611;51.794;21.590;2023-06-10T09:17:45;5.70;;;5.20;;
51525;SDS011;37611;51.794;21.590;2023-06-10T09:21:47;6.20;;;5.20;;
51525;SDS011;37611;51.794;21.590;2023-06-10T09:25:55;7.70;;;5.10;;
51525;SDS011;37611;51.794;21.590;2023-06-10T09:29:59;8.50;;;4.60;;
51525;SDS011;37611;51.794;21.590;2023-06-10T09:34:19;6.20;;;4.90;;
51525;SDS011;37611;51.794;21.590;2023-06-10T09:38:29;7.70;;;4.20;;
51525;SDS011;37611;51.794;21.590;2023-06-10T09:42:36;5.40;;;4.90;;
51525;SDS011;37611;51.794;21.590;2023-06-10T09:46:40;6.60;;;4.20;;
51525;SDS011;37611;51.794;21.590;2023-06-10T09:50:43;8.90;;;4.70;;
51525;SDS011;37611;51.794;21.590;2023-06-10T09:54:45;6.90;;;4.70;;
51525;SDS011;37611;51.794;21.590;2023-06-10T09:58:49;5.10;;;4.50;;
51525;SDS011;37611;51.794;21.590;2023-06-10T10:02:54;6.90;;;4.70;;
51525;SDS011;37611;51.794;21.590;2023-06-10T10:06:56;6.50;;;4.50;;
51525;SDS011;37611;51.794;21.590;2023-06-10T10:11:00;5.30;;;4.40;;
51525;SDS011;37611;51.794;21.590;2023-06-10T10:15:08;7.10;;;4.60;;
51525;SDS011;37611;51.794;21.590;2023-06-10T10:19:11;4.50;;;3.90;;
51525;SDS011;37611;51.794;21.590;2023-06-10T10:23:25;7.80;;;3.90;;
51525;SDS011;37611;51.794;21.590;2023-06-10T10:27:33;4.80;;;3.00;;
51525;SDS011;37611;51.794;21.590;2023-06-10T10:31:42;2.90;;;2.60;;
51525;SDS011;37611;51.794;21.590;2023-06-10T10:35:48;3.20;;;2.10;;
51525;SDS011;37611;51.794;21.590;2023-06-10T10:39:51;2.90;;;2.30;;
51525;SDS011;37611;51.794;21.590;2023-06-10T10:43:53;2.30;;;1.90;;
51525;SDS011;37611;51.794;21.590;2023-06-10T10:47:55;3.40;;;2.50;;
51525;SDS011;37611;51.794;21.590;2023-06-10T10:52:02;5.40;;;2.90;;
51525;SDS011;37611;51.794;21.590;2023-06-10T10:56:13;5.70;;;3.70;;
51525;SDS011;37611;51.794;21.590;2023-06-10T11:00:29;5.30;;;4.00;;
51525;SDS011;37611;51.794;21.590;2023-06-10T11:04:48;4.80;;;2.90;;
51525;SDS011;37611;51.794;21.590;2023-06-10T11:08:50;4.20;;;2.70;;
51525;SDS011;37611;51.794;21.590;2023-06-10T11:12:52;3.30;;;2.70;;
51525;SDS011;37611;51.794;21.590;2023-06-10T11:16:58;4.10;;;3.00;;
51525;SDS011;37611;51.794;21.590;2023-06-10T11:21:04;4.00;;;2.80;;
51525;SDS011;37611;51.794;21.590;2023-06-10T11:25:13;4.10;;;3.40;;
51525;SDS011;37611;51.794;21.590;2023-06-10T11:29:16;4.80;;;3.40;;
51525;SDS011;37611;51.794;21.590;2023-06-10T11:33:18;3.60;;;3.30;;
51525;SDS011;37611;51.794;21.590;2023-06-10T11:37:21;4.00;;;3.60;;
51525;SDS011;37611;51.794;21.590;2023-06-10T11:41:23;5.80;;;4.20;;
51525;SDS011;37611;51.794;21.590;2023-06-10T11:45:29;5.20;;;4.70;;
51525;SDS011;37611;51.794;21.590;2023-06-10T11:49:31;4.50;;;4.00;;
51525;SDS011;37611;51.794;21.590;2023-06-10T11:53:32;4.80;;;4.00;;
51525;SDS011;37611;51.794;21.590;2023-06-10T11:57:34;5.00;;;4.10;;
51525;SDS011;37611;51.794;21.590;2023-06-10T12:01:37;3.70;;;3.30;;
51525;SDS011;37611;51.794;21.590;2023-06-10T12:05:56;9.80;;;3.50;;
51525;SDS011;37611;51.794;21.590;2023-06-10T12:10:03;5.00;;;3.40;;
51525;SDS011;37611;51.794;21.590;2023-06-10T12:14:05;4.70;;;3.30;;
51525;SDS011;37611;51.794;21.590;2023-06-10T12:18:07;4.40;;;3.90;;
51525;SDS011;37611;51.794;21.590;2023-06-10T12:22:09;5.70;;;4.10;;
51525;SDS011;37611;51.794;21.590;2023-06-10T12:26:10;10.20;;;4.20;;
51525;SDS011;37611;51.794;21.590;2023-06-10T12:30:18;4.40;;;3.40;;
51525;SDS011;37611;51.794;21.590;2023-06-10T12:34:30;6.40;;;4.10;;
51525;SDS011;37611;51.794;21.590;2023-06-10T12:38:33;4.10;;;3.60;;
51525;SDS011;37611;51.794;21.590;2023-06-10T12:42:35;5.70;;;3.60;;
51525;SDS011;37611;51.794;21.590;2023-06-10T12:46:38;5.20;;;3.90;;
51525;SDS011;37611;51.794;21.590;2023-06-10T12:50:41;4.30;;;3.30;;
51525;SDS011;37611;51.794;21.590;2023-06-10T12:54:44;3.80;;;3.20;;
51525;SDS011;37611;51.794;21.590;2023-06-10T12:58:46;3.50;;;3.20;;
51525;SDS011;37611;51.794;21.590;2023-06-10T13:02:48;3.50;;;3.20;;
51525;SDS011;37611;51.794;21.590;2023-06-10T13:06:50;4.10;;;3.10;;
51525;SDS011;37611;51.794;21.590;2023-06-10T13:10:52;5.70;;;4.50;;
51525;SDS011;37611;51.794;21.590;2023-06-10T13:14:54;5.80;;;4.40;;
51525;SDS011;37611;51.794;21.590;2023-06-10T13:18:56;8.40;;;6.70;;
51525;SDS011;37611;51.794;21.590;2023-06-10T13:23:00;4.70;;;4.20;;
51525;SDS011;37611;51.794;21.590;2023-06-10T13:27:03;7.00;;;4.20;;
51525;SDS011;37611;51.794;21.590;2023-06-10T13:31:04;5.20;;;4.50;;
51525;SDS011;37611;51.794;21.590;2023-06-10T13:35:06;4.10;;;3.40;;
51525;SDS011;37611;51.794;21.590;2023-06-10T13:39:09;5.10;;;3.80;;
51525;SDS011;37611;51.794;21.590;2023-06-10T13:43:11;6.50;;;5.40;;
51525;SDS011;37611;51.794;21.590;2023-06-10T13:47:16;7.30;;;6.10;;
51525;SDS011;37611;51.794;21.590;2023-06-10T13:51:18;7.30;;;6.50;;
51525;SDS011;37611;51.794;21.590;2023-06-10T13:55:20;5.40;;;4.90;;
51525;SDS011;37611;51.794;21.590;2023-06-10T13:59:22;16.70;;;15.00;;
51525;SDS011;37611;51.794;21.590;2023-06-10T14:03:24;8.20;;;5.30;;
51525;SDS011;37611;51.794;21.590;2023-06-10T14:07:26;17.10;;;12.50;;
51525;SDS011;37611;51.794;21.590;2023-06-10T14:11:27;10.70;;;8.20;;
51525;SDS011;37611;51.794;21.590;2023-06-10T14:15:29;9.90;;;8.00;;
51525;SDS011;37611;51.794;21.590;2023-06-10T14:19:31;8.60;;;6.90;;
51525;SDS011;37611;51.794;21.590;2023-06-10T14:23:33;5.90;;;4.70;;
51525;SDS011;37611;51.794;21.590;2023-06-10T14:27:35;4.80;;;4.30;;
51525;SDS011;37611;51.794;21.590;2023-06-10T14:31:37;6.00;;;5.40;;
51525;SDS011;37611;51.794;21.590;2023-06-10T14:35:38;5.30;;;4.60;;
51525;SDS011;37611;51.794;21.590;2023-06-10T14:39:40;6.30;;;4.50;;
51525;SDS011;37611;51.794;21.590;2023-06-10T14:43:42;4.80;;;4.20;;
51525;SDS011;37611;51.794;21.590;2023-06-10T14:47:44;5.30;;;4.80;;
51525;SDS011;37611;51.794;21.590;2023-06-10T14:51:46;5.30;;;4.50;;
51525;SDS011;37611;51.794;21.590;2023-06-10T14:55:51;5.50;;;4.90;;
51525;SDS011;37611;51.794;21.590;2023-06-10T14:59:52;6.30;;;5.10;;
51525;SDS011;37611;51.794;21.590;2023-06-10T15:03:54;7.70;;;6.50;;
51525;SDS011;37611;51.794;21.590;2023-06-10T15:07:56;7.80;;;6.30;;
51525;SDS011;37611;51.794;21.590;2023-06-10T15:11:58;7.70;;;6.40;;
51525;SDS011;37611;51.794;21.590;2023-06-10T15:16:00;6.50;;;5.80;;
51525;SDS011;37611;51.794;21.590;2023-06-10T15:20:02;9.90;;;6.80;;
51525;SDS011;37611;51.794;21.590;2023-06-10T15:24:05;8.70;;;6.80;;
51525;SDS011;37611;51.794;21.590;2023-06-10T15:28:08;7.00;;;6.30;;
51525;SDS011;37611;51.794;21.590;2023-06-10T15:32:09;8.80;;;6.80;;
51525;SDS011;37611;51.794;21.590;2023-06-10T15:36:11;8.20;;;7.50;;
51525;SDS011;37611;51.794;21.590;2023-06-10T15:40:14;7.60;;;6.80;;
51525;SDS011;37611;51.794;21.590;2023-06-10T15:44:16;9.30;;;6.70;;
51525;SDS011;37611;51.794;21.590;2023-06-10T15:48:18;9.30;;;6.80;;
51525;SDS011;37611;51.794;21.590;2023-06-10T15:52:20;8.60;;;6.60;;
51525;SDS011;37611;51.794;21.590;2023-06-10T15:56:22;8.50;;;7.60;;
51525;SDS011;37611;51.794;21.590;2023-06-10T16:00:24;10.70;;;6.30;;
51525;SDS011;37611;51.794;21.590;2023-06-10T16:04:25;11.00;;;6.90;;
51525;SDS011;37611;51.794;21.590;2023-06-10T16:08:27;8.50;;;6.50;;
51525;SDS011;37611;51.794;21.590;2023-06-10T16:12:29;7.20;;;6.20;;
51525;SDS011;37611;51.794;21.590;2023-06-10T16:16:32;7.00;;;6.30;;
51525;SDS011;37611;51.794;21.590;2023-06-10T16:20:33;5.80;;;5.20;;
51525;SDS011;37611;51.794;21.590;2023-06-10T16:24:36;7.20;;;6.50;;
51525;SDS011;37611;51.794;21.590;2023-06-10T16:28:38;6.00;;;5.30;;
51525;SDS011;37611;51.794;21.590;2023-06-10T16:32:40;6.10;;;5.00;;
51525;SDS011;37611;51.794;21.590;2023-06-10T16:36:42;7.90;;;5.70;;
51525;SDS011;37611;51.794;21.590;2023-06-10T16:40:43;8.00;;;4.80;;
51525;SDS011;37611;51.794;21.590;2023-06-10T16:44:46;6.80;;;5.50;;
51525;SDS011;37611;51.794;21.590;2023-06-10T16:48:47;7.70;;;6.10;;
51525;SDS011;37611;51.794;21.590;2023-06-10T16:52:49;8.90;;;6.20;;
51525;SDS011;37611;51.794;21.590;2023-06-10T16:56:51;10.20;;;6.90;;
51525;SDS011;37611;51.794;21.590;2023-06-10T17:00:53;7.20;;;6.60;;
51525;SDS011;37611;51.794;21.590;2023-06-10T17:04:58;9.70;;;8.10;;
51525;SDS011;37611;51.794;21.590;2023-06-10T17:09:00;8.70;;;7.90;;
51525;SDS011;37611;51.794;21.590;2023-06-10T17:13:02;18.70;;;16.00;;
51525;SDS011;37611;51.794;21.590;2023-06-10T17:17:04;12.40;;;9.40;;
51525;SDS011;37611;51.794;21.590;2023-06-10T17:21:06;7.50;;;5.60;;
51525;SDS011;37611;51.794;21.590;2023-06-10T17:25:07;7.50;;;6.70;;
51525;SDS011;37611;51.794;21.590;2023-06-10T17:29:10;6.60;;;4.80;;
51525;SDS011;37611;51.794;21.590;2023-06-10T17:33:12;6.60;;;5.20;;
51525;SDS011;37611;51.794;21.590;2023-06-10T17:37:13;10.90;;;6.50;;
51525;SDS011;37611;51.794;21.590;2023-06-10T17:41:15;12.50;;;8.80;;
51525;SDS011;37611;51.794;21.590;2023-06-10T17:45:17;18.30;;;8.90;;
51525;SDS011;37611;51.794;21.590;2023-06-10T17:49:22;11.10;;;7.70;;
51525;SDS011;37611;51.794;21.590;2023-06-10T17:53:25;11.60;;;8.30;;
51525;SDS011;37611;51.794;21.590;2023-06-10T17:57:26;11.40;;;6.90;;
51525;SDS011;37611;51.794;21.590;2023-06-10T18:01:29;10.10;;;6.40;;
51525;SDS011;37611;51.794;21.590;2023-06-10T18:05:31;8.80;;;6.50;;
51525;SDS011;37611;51.794;21.590;2023-06-10T18:09:33;6.50;;;5.30;;
51525;SDS011;37611;51.794;21.590;2023-06-10T18:13:34;7.00;;;6.20;;
51525;SDS011;37611;51.794;21.590;2023-06-10T18:17:36;8.80;;;6.10;;
51525;SDS011;37611;51.794;21.590;2023-06-10T18:21:38;6.00;;;5.40;;
51525;SDS011;37611;51.794;21.590;2023-06-10T18:25:40;6.70;;;4.90;;
51525;SDS011;37611;51.794;21.590;2023-06-10T18:29:42;5.50;;;5.00;;
51525;SDS011;37611;51.794;21.590;2023-06-10T18:33:44;6.40;;;5.80;;
51525;SDS011;37611;51.794;21.590;2023-06-10T18:37:46;7.50;;;6.40;;
51525;SDS011;37611;51.794;21.590;2023-06-10T18:41:48;10.70;;;6.50;;
51525;SDS011;37611;51.794;21.590;2023-06-10T18:45:50;7.50;;;6.70;;
51525;SDS011;37611;51.794;21.590;2023-06-10T18:49:51;7.20;;;6.60;;
51525;SDS011;37611;51.794;21.590;2023-06-10T18:53:53;7.70;;;6.00;;
51525;SDS011;37611;51.794;21.590;2023-06-10T18:57:55;7.90;;;7.00;;
51525;SDS011;37611;51.794;21.590;2023-06-10T19:01:56;12.30;;;7.60;;
51525;SDS011;37611;51.794;21.590;2023-06-10T19:05:58;8.60;;;7.70;;
51525;SDS011;37611;51.794;21.590;2023-06-10T19:10:01;7.70;;;6.90;;
51525;SDS011;37611;51.794;21.590;2023-06-10T19:14:04;8.20;;;7.30;;
51525;SDS011;37611;51.794;21.590;2023-06-10T19:18:07;10.50;;;8.60;;
51525;SDS011;37611;51.794;21.590;2023-06-10T19:22:09;10.90;;;9.90;;
51525;SDS011;37611;51.794;21.590;2023-06-10T19:26:11;9.80;;;8.90;;
51525;SDS011;37611;51.794;21.590;2023-06-10T19:30:13;14.10;;;7.70;;
51525;SDS011;37611;51.794;21.590;2023-06-10T19:34:14;8.80;;;7.90;;
51525;SDS011;37611;51.794;21.590;2023-06-10T19:38:17;8.80;;;7.90;;
51525;SDS011;37611;51.794;21.590;2023-06-10T19:42:19;10.40;;;8.30;;
51525;SDS011;37611;51.794;21.590;2023-06-10T19:46:21;8.50;;;7.40;;
51525;SDS011;37611;51.794;21.590;2023-06-10T19:50:23;8.50;;;7.60;;
51525;SDS011;37611;51.794;21.590;2023-06-10T19:54:25;10.50;;;8.10;;
51525;SDS011;37611;51.794;21.590;2023-06-10T19:58:27;9.70;;;8.70;;
51525;SDS011;37611;51.794;21.590;2023-06-10T20:02:28;9.20;;;8.30;;
51525;SDS011;37611;51.794;21.590;2023-06-10T20:06:32;11.80;;;8.70;;
51525;SDS011;37611;51.794;21.590;2023-06-10T20:10:34;10.10;;;8.20;;
51525;SDS011;37611;51.794;21.590;2023-06-10T20:14:35;9.50;;;8.60;;
51525;SDS011;37611;51.794;21.590;2023-06-10T20:18:37;10.00;;;8.70;;
51525;SDS011;37611;51.794;21.590;2023-06-10T20:22:39;8.90;;;8.10;;
51525;SDS011;37611;51.794;21.590;2023-06-10T20:26:41;9.30;;;8.40;;
51525;SDS011;37611;51.794;21.590;2023-06-10T20:30:42;10.80;;;8.30;;
51525;SDS011;37611;51.794;21.590;2023-06-10T20:34:44;9.40;;;8.50;;
51525;SDS011;37611;51.794;21.590;2023-06-10T20:38:46;10.00;;;8.60;;
51525;SDS011;37611;51.794;21.590;2023-06-10T20:42:49;9.40;;;8.50;;
51525;SDS011;37611;51.794;21.590;2023-06-10T20:46:50;13.80;;;9.00;;
51525;SDS011;37611;51.794;21.590;2023-06-10T20:50:52;10.20;;;8.70;;
51525;SDS011;37611;51.794;21.590;2023-06-10T20:54:54;8.90;;;8.00;;
51525;SDS011;37611;51.794;21.590;2023-06-10T20:58:56;9.30;;;7.70;;
51525;SDS011;37611;51.794;21.590;2023-06-10T21:02:58;9.90;;;8.30;;
51525;SDS011;37611;51.794;21.590;2023-06-10T21:07:00;9.60;;;8.80;;
51525;SDS011;37611;51.794;21.590;2023-06-10T21:11:02;9.90;;;9.00;;
51525;SDS011;37611;51.794;21.590;2023-06-10T21:15:05;9.60;;;8.70;;
51525;SDS011;37611;51.794;21.590;2023-06-10T21:19:07;11.00;;;8.80;;
51525;SDS011;37611;51.794;21.590;2023-06-10T21:23:09;9.20;;;8.40;;
51525;SDS011;37611;51.794;21.590;2023-06-10T21:27:12;10.70;;;9.30;;
51525;SDS011;37611;51.794;21.590;2023-06-10T21:31:15;9.60;;;8.70;;
51525;SDS011;37611;51.794;21.590;2023-06-10T21:35:17;9.90;;;9.00;;
51525;SDS011;37611;51.794;21.590;2023-06-10T21:39:19;9.60;;;8.70;;
51525;SDS011;37611;51.794;21.590;2023-06-10T21:43:21;10.40;;;9.40;;
51525;SDS011;37611;51.794;21.590;2023-06-10T21:47:22;9.30;;;8.30;;
51525;SDS011;37611;51.794;21.590;2023-06-10T21:51:24;11.70;;;9.00;;
51525;SDS011;37611;51.794;21.590;2023-06-10T21:55:26;9.90;;;9.00;;
51525;SDS011;37611;51.794;21.590;2023-06-10T21:59:27;11.40;;;9.20;;
51525;SDS011;37611;51.794;21.590;2023-06-10T22:03:29;10.60;;;9.50;;
51525;SDS011;37611;51.794;21.590;2023-06-10T22:07:31;12.20;;;9.10;;
51525;SDS011;37611;51.794;21.590;2023-06-10T22:11:33;11.20;;;9.70;;
51525;SDS011;37611;51.794;21.590;2023-06-10T22:15:35;10.70;;;9.70;;
51525;SDS011;37611;51.794;21.590;2023-06-10T22:19:37;10.50;;;9.50;;
51525;SDS011;37611;51.794;21.590;2023-06-10T22:23:40;11.90;;;9.00;;
51525;SDS011;37611;51.794;21.590;2023-06-10T22:27:42;11.30;;;9.70;;
51525;SDS011;37611;51.794;21.590;2023-06-10T22:31:44;10.60;;;9.50;;
51525;SDS011;37611;51.794;21.590;2023-06-10T22:35:46;11.40;;;10.30;;
51525;SDS011;37611;51.794;21.590;2023-06-10T22:39:48;11.10;;;9.90;;
51525;SDS011;37611;51.794;21.590;2023-06-10T22:43:49;10.90;;;9.80;;
51525;SDS011;37611;51.794;21.590;2023-06-10T22:47:51;11.20;;;10.20;;
51525;SDS011;37611;51.794;21.590;2023-06-10T22:51:53;11.60;;;9.70;;
51525;SDS011;37611;51.794;21.590;2023-06-10T22:55:54;10.30;;;9.20;;
51525;SDS011;37611;51.794;21.590;2023-06-10T22:59:59;11.10;;;10.10;;
51525;SDS011;37611;51.794;21.590;2023-06-10T23:04:01;11.60;;;10.30;;
51525;SDS011;37611;51.794;21.590;2023-06-10T23:08:03;11.50;;;10.40;;
51525;SDS011;37611;51.794;21.590;2023-06-10T23:12:05;11.00;;;10.00;;
51525;SDS011;37611;51.794;21.590;2023-06-10T23:16:08;12.90;;;11.10;;
51525;SDS011;37611;51.794;21.590;2023-06-10T23:20:09;10.70;;;9.60;;
51525;SDS011;37611;51.794;21.590;2023-06-10T23:24:12;10.90;;;9.60;;
51525;SDS011;37611;51.794;21.590;2023-06-10T23:28:18;10.70;;;9.60;;
51525;SDS011;37611;51.794;21.590;2023-06-10T23:32:19;11.40;;;8.70;;
51525;SDS011;37611;51.794;21.590;2023-06-10T23:36:21;11.70;;;8.70;;
51525;SDS011;37611;51.794;21.590;2023-06-10T23:40:23;9.30;;;8.50;;
51525;SDS011;37611;51.794;21.590;2023-06-10T23:44:25;11.20;;;8.90;;
51525;SDS011;37611;51.794;21.590;2023-06-10T23:48:27;12.10;;;8.50;;
51525;SDS011;37611;51.794;21.590;2023-06-10T23:52:28;12.50;;;9.10;;
51525;SDS011;37611;51.794;21.590;2023-06-10T23:56:31;10.10;;;9.10;;
